Time;durP1;ratioP1;P1;durP2;ratioP2;P2;SDS_P1;SDS_P2;PMS_P1;PMS_P2;Temp;Humidity;BMP_temperature;BMP_pressure;BME280_temperature;BME280_humidity;BME280_pressure;Samples;Min_cycle;Max_cycle;Signal;HPM_P1;HPM_P2
2022/10/21 08:07:20;;;;;;;;;;;;;;;18.14;84.88;96713.63;4204951;28;10337;-80
2022/10/21 08:09:25;;;;;;;;;;;;;;;18.43;83.69;96717.00;4187496;28;5903;-80
2022/10/21 08:11:30;;;;;;;;;;;;;;;18.66;83.09;96705.31;4189976;28;5804;-79
2022/10/21 08:13:41;;;;;;;;;;;;;;;18.83;82.91;96698.06;4190803;28;5820;-80
2022/10/21 08:15:46;;;;;;;;;;;;;;;18.98;82.51;96702.81;4193970;28;5839;-79
2022/10/21 08:17:49;;;;;;;;;;;;;;;19.10;82.09;96716.09;4192171;28;5839;-80
2022/10/21 08:19:52;;;;;;;;;;;;;;;19.19;81.43;96720.75;4194448;28;5721;-80
2022/10/21 08:22:02;;;;;;;;;;;;;;;19.26;81.24;96712.56;4193779;28;5815;-81
2022/10/21 08:24:07;;;;;;;;;;;;;;;19.35;80.80;96720.94;4197951;28;5733;-79
2022/10/21 08:26:12;;;;;;;;;;;;;;;19.41;80.80;96725.31;4195504;28;5728;-79
2022/10/21 08:28:18;;;;;;;;;;;;;;;19.46;80.81;96723.47;4195474;28;5819;-80
2022/10/21 08:30:21;;;;;;;;;;;;;;;19.51;80.47;96727.31;4183716;28;5794;-79
2022/10/21 08:32:23;;;;;;;;;;;;;;;19.54;80.46;96726.78;4194808;28;5792;-70
2022/10/21 08:34:27;;;;;;;;;;;;;;;19.59;80.38;96734.91;4187664;28;5720;-70
2022/10/21 08:36:30;;;;;;;;;;;;;;;19.62;79.89;96735.25;4194002;28;5701;-70
2022/10/21 08:38:33;;;;;;;;;;;;;;;19.64;79.87;96738.47;4191095;28;5876;-70
2022/10/21 08:40:40;;;;;;;;;;;;;;;19.68;80.07;96736.91;4193896;28;5712;-70
2022/10/21 08:42:44;;;;;;;;;;;;;;;19.71;79.63;96744.47;4187376;28;5709;-70
2022/10/21 08:44:55;;;;;;;;;;;;;;;19.71;79.82;96749.00;4191402;28;6512;-71
2022/10/21 08:47:05;;;;;;;;;;;;;;;19.75;79.31;96756.28;4189746;28;5705;-71
2022/10/21 08:49:16;;;;;;;;;;;;;;;19.75;79.69;96745.56;4185982;28;5834;-71
2022/10/21 08:51:23;;;;;;;;;;;;;;;19.77;79.28;96748.81;4185493;28;5662;-70
2022/10/21 08:53:33;;;;;;;;;;;;;;;19.80;79.25;96754.72;4185974;28;5822;-70
2022/10/21 08:55:41;;;;;;;;;;;;;;;19.83;78.82;96747.00;4189876;28;5728;-70
2022/10/21 08:57:45;;;;;;;;;;;;;;;19.84;78.76;96737.88;4194133;28;5784;-70
2022/10/21 08:59:48;;;;;;;;;;;;;;;19.88;78.70;96746.22;4189066;28;5737;-69
2022/10/21 09:01:57;;;;;;;;;;;;;;;19.88;78.67;96743.53;4187548;28;5180;-70
2022/10/21 09:04:07;;;;;;;;;;;;;;;19.88;78.95;96751.59;4193638;28;7703;-70
2022/10/21 09:06:20;;;;;;;;;;;;;;;19.88;78.76;96746.22;4190749;28;5690;-70
2022/10/21 09:08:26;;;;;;;;;;;;;;;19.90;78.71;96749.47;4178075;28;6422;-70
2022/10/21 09:10:42;;;;;;;;;;;;;;;19.91;78.61;96753.75;4176316;28;5955;-70
2022/10/21 09:12:59;;;;;;;;;;;;;;;19.92;78.24;96750.81;4179298;28;6155;-70
2022/10/21 09:15:23;;;;;;;;;;;;;;;19.95;77.97;96746.84;4182224;28;6076;-70
2022/10/21 09:17:46;;;;;;;;;;;;;;;19.96;78.20;96746.59;4173434;28;5726;-70
2022/10/21 09:19:58;;;;;;;;;;;;;;;19.98;78.01;96749.00;4176744;28;5734;-69
2022/10/21 09:22:15;;;;;;;;;;;;;;;19.99;78.21;96734.53;4169450;28;5837;-70
2022/10/21 09:24:45;;;;;;;;;;;;;;;20.01;77.92;96748.50;4178668;28;5845;-69
2022/10/21 09:26:51;;;;;;;;;;;;;;;20.04;77.72;96747.97;4177695;28;5561;-69
2022/10/21 09:28:54;;;;;;;;;;;;;;;20.03;77.57;96741.81;4182973;28;5724;-69
2022/10/21 09:31:00;;;;;;;;;;;;;;;20.05;77.67;96738.88;4171147;28;5769;-70
2022/10/21 09:33:09;;;;;;;;;;;;;;;20.08;77.53;96732.19;4175201;28;5105;-70
2022/10/21 09:35:20;;;;;;;;;;;;;;;20.08;77.03;96753.66;4174161;28;5742;-70
2022/10/21 09:37:29;;;;;;;;;;;;;;;20.07;77.45;96752.84;4185249;28;5800;-70
2022/10/21 09:39:41;;;;;;;;;;;;;;;20.08;76.92;96738.38;4168791;28;5772;-70
2022/10/21 09:41:51;;;;;;;;;;;;;;;20.11;76.85;96737.84;4177270;28;5980;-69
2022/10/21 09:44:00;;;;;;;;;;;;;;;20.14;76.60;96734.66;4177209;28;5836;-70
2022/10/21 09:46:03;;;;;;;;;;;;;;;20.15;76.52;96732.78;4184710;28;5812;-70
2022/10/21 09:48:22;;;;;;;;;;;;;;;20.15;76.49;96730.91;4179633;28;5729;-70
2022/10/21 09:50:26;;;;;;;;;;;;;;;20.16;76.61;96729.88;4171886;28;5823;-70
2022/10/21 09:52:35;;;;;;;;;;;;;;;20.19;76.31;96725.84;4182127;28;5713;-70
2022/10/21 09:54:41;;;;;;;;;;;;;;;20.21;76.10;96735.25;4181580;28;5963;-70
2022/10/21 09:56:49;;;;;;;;;;;;;;;20.21;76.44;96737.94;4177224;28;7425;-70
2022/10/21 09:59:06;;;;;;;;;;;;;;;20.21;76.25;96743.31;4180062;28;5725;-70
2022/10/21 10:01:16;;;;;;;;;;;;;;;20.23;76.04;96738.50;4177548;28;5717;-70
2022/10/21 10:03:31;;;;;;;;;;;;;;;20.23;75.75;96746.56;4171240;28;5726;-70
2022/10/21 10:05:36;;;;;;;;;;;;;;;20.24;75.92;96742.78;4171145;28;5891;-70
2022/10/21 10:07:39;;;;;;;;;;;;;;;20.24;75.88;96748.16;4176693;28;5732;-70
2022/10/21 10:09:45;;;;;;;;;;;;;;;20.24;75.81;96745.47;4184904;28;5721;-70
2022/10/21 10:11:52;;;;;;;;;;;;;;;20.27;75.62;96758.41;4171579;28;5928;-70
2022/10/21 10:13:56;;;;;;;;;;;;;;;20.28;75.49;96760.03;4174110;28;6417;-70
2022/10/21 10:16:16;;;;;;;;;;;;;;;20.28;75.35;96765.41;4177939;28;5796;-70
2022/10/21 10:18:21;;;;;;;;;;;;;;;20.27;75.11;96758.41;4184609;28;5268;-69
2022/10/21 10:20:24;;;;;;;;;;;;;;;20.29;74.93;96756.28;4184115;28;7727;-69
2022/10/21 10:22:27;;;;;;;;;;;;;;;20.30;74.84;96755.22;4184929;28;5866;-69
2022/10/21 10:24:31;;;;;;;;;;;;;;;20.33;74.71;96757.38;4184817;28;5720;-70
2022/10/21 10:26:39;;;;;;;;;;;;;;;20.34;74.87;96760.88;4184602;28;5802;-70
2022/10/21 10:28:50;;;;;;;;;;;;;;;20.35;74.59;96760.59;4180652;28;5738;-69
2022/10/21 10:30:56;;;;;;;;;;;;;;;20.37;74.87;96765.72;4168070;28;5751;-69
2022/10/21 10:33:08;;;;;;;;;;;;;;;20.38;74.44;96771.91;4168084;28;5766;-69
2022/10/21 10:35:22;;;;;;;;;;;;;;;20.38;74.64;96769.22;4168101;28;5805;-69
2022/10/21 10:37:28;;;;;;;;;;;;;;;20.40;74.64;96775.16;4168271;28;5742;-69
2022/10/21 10:39:35;;;;;;;;;;;;;;;20.40;74.21;96777.84;4167961;28;5731;-69
2022/10/21 10:41:40;;;;;;;;;;;;;;;20.40;74.60;96777.84;4179560;28;5867;-70
2022/10/21 10:43:46;;;;;;;;;;;;;;;20.43;74.47;96772.78;4184439;28;5752;-69
2022/10/21 10:45:53;;;;;;;;;;;;;;;20.45;74.19;96759.13;4176374;28;5716;-69
2022/10/21 10:48:02;;;;;;;;;;;;;;;20.47;74.30;96751.59;4176064;28;5745;-70
2022/10/21 10:50:06;;;;;;;;;;;;;;;20.45;73.77;96754.56;4175875;28;5746;-70
2022/10/21 10:52:21;;;;;;;;;;;;;;;20.48;74.00;96755.91;4171600;28;5755;-69
2022/10/21 10:54:27;;;;;;;;;;;;;;;20.52;74.05;96763.22;4173982;28;7687;-70
2022/10/21 10:56:36;;;;;;;;;;;;;;;20.57;73.75;96768.59;4166973;28;5829;-70
2022/10/21 10:58:44;;;;;;;;;;;;;;;20.61;73.55;96766.19;4175370;28;5713;-70
2022/10/21 11:00:50;;;;;;;;;;;;;;;20.64;73.72;96761.16;4175441;28;5812;-70
2022/10/21 11:03:01;;;;;;;;;;;;;;;20.67;73.47;96762.50;4184054;28;5717;-69
2022/10/21 11:05:15;;;;;;;;;;;;;;;20.69;73.49;96760.38;4175816;28;6505;-70
2022/10/21 11:07:27;;;;;;;;;;;;;;;20.72;73.31;96762.53;4167334;28;5809;-69
2022/10/21 11:09:32;;;;;;;;;;;;;;;20.73;73.34;96758.00;4169740;28;5734;-69
2022/10/21 11:11:38;;;;;;;;;;;;;;;20.72;73.15;96748.28;4168656;28;6425;-69
2022/10/21 11:13:41;;;;;;;;;;;;;;;20.73;72.78;96750.75;4179480;28;5803;-70
2022/10/21 11:16:00;;;;;;;;;;;;;;;20.76;72.73;96752.91;4175678;28;5704;-69
2022/10/21 11:18:14;;;;;;;;;;;;;;;20.80;72.70;96750.50;4168675;28;5751;-70
2022/10/21 11:20:34;;;;;;;;;;;;;;;20.80;72.66;96740.56;4177308;28;5804;-69
2022/10/21 11:22:45;;;;;;;;;;;;;;;20.79;72.18;96733.56;4183744;28;5724;-70
2022/10/21 11:25:04;;;;;;;;;;;;;;;20.81;72.30;96733.31;4183925;28;5803;-69
2022/10/21 11:27:16;;;;;;;;;;;;;;;20.80;71.71;96732.50;4167660;28;5089;-69
2022/10/21 11:29:33;;;;;;;;;;;;;;;20.82;71.92;96735.72;4176393;28;5786;-70
2022/10/21 11:31:45;;;;;;;;;;;;;;;20.82;71.71;96735.72;4172023;28;5837;-69
2022/10/21 11:34:17;;;;;;;;;;;;;;;20.83;71.59;96740.03;4167504;28;5734;-69
2022/10/21 11:36:33;;;;;;;;;;;;;;;20.84;71.43;96730.94;4176128;28;5713;-69
2022/10/21 11:38:52;;;;;;;;;;;;;;;20.85;71.11;96737.91;4175337;28;5721;-69
2022/10/21 11:41:02;;;;;;;;;;;;;;;20.83;71.36;96740.03;4177875;28;5738;-69
2022/10/21 11:43:20;;;;;;;;;;;;;;;20.82;70.74;96738.41;4182589;28;5721;-70
2022/10/21 11:45:33;;;;;;;;;;;;;;;20.81;70.48;96736.81;4167215;28;5837;-70
2022/10/21 11:47:45;;;;;;;;;;;;;;;20.82;70.81;96737.59;4170147;28;5804;-70
2022/10/21 11:50:00;;;;;;;;;;;;;;;20.84;70.42;96730.13;4178954;28;5743;-70
2022/10/21 11:52:16;;;;;;;;;;;;;;;20.86;70.35;96734.16;4175283;28;5941;-70
2022/10/21 11:54:40;;;;;;;;;;;;;;;20.90;70.00;96723.69;4175876;28;5799;-70
2022/10/21 11:57:08;;;;;;;;;;;;;;;20.92;70.30;96725.03;4168332;28;5900;-70
2022/10/21 11:59:24;;;;;;;;;;;;;;;20.92;69.79;96719.66;4183372;28;5819;-70
2022/10/21 12:01:42;;;;;;;;;;;;;;;20.93;69.88;96717.78;4174947;28;5837;-70
2022/10/21 12:04:04;;;;;;;;;;;;;;;20.93;69.78;96723.16;4171254;28;5709;-70
2022/10/21 12:06:26;;;;;;;;;;;;;;;20.91;69.81;96720.75;4167164;28;5742;-70
2022/10/21 12:08:37;;;;;;;;;;;;;;;20.93;69.67;96723.16;4174829;28;6406;-70
2022/10/21 12:10:51;;;;;;;;;;;;;;;20.92;69.23;96724.25;4174908;28;5731;-70
2022/10/21 12:12:57;;;;;;;;;;;;;;;20.93;69.20;96717.78;4172630;28;5127;-70
2022/10/21 12:15:02;;;;;;;;;;;;;;;20.96;69.10;96727.22;4168740;28;5726;-70
2022/10/21 12:17:08;;;;;;;;;;;;;;;20.96;69.18;96716.50;4182211;28;5796;-69
2022/10/21 12:19:14;;;;;;;;;;;;;;;20.95;68.85;96704.91;4166969;28;5726;-69
2022/10/21 12:21:21;;;;;;;;;;;;;;;20.96;69.24;96703.06;4166708;28;5734;-69
2022/10/21 12:23:27;;;;;;;;;;;;;;;20.97;68.81;96697.41;4176751;28;5716;-69
2022/10/21 12:25:38;;;;;;;;;;;;;;;21.01;68.65;96698.50;4183199;28;5734;-69
2022/10/21 12:27:46;;;;;;;;;;;;;;;21.03;68.59;96684.78;4179196;28;5734;-69
2022/10/21 12:30:02;;;;;;;;;;;;;;;21.06;68.98;96692.31;4174831;28;5849;-70
2022/10/21 12:32:13;;;;;;;;;;;;;;;21.07;68.76;96685.91;4175052;28;5849;-70
2022/10/21 12:34:16;;;;;;;;;;;;;;;21.07;68.56;96684.03;4167088;28;5750;-70
2022/10/21 12:36:39;;;;;;;;;;;;;;;21.09;68.60;96683.75;4174909;28;5766;-70
2022/10/21 12:38:48;;;;;;;;;;;;;;;21.08;68.63;96687.50;4179258;28;5841;-70
2022/10/21 12:41:11;;;;;;;;;;;;;;;21.09;68.96;96684.56;4171510;28;5787;-70
2022/10/21 12:43:22;;;;;;;;;;;;;;;21.09;68.90;96681.88;4176808;28;5713;-69
2022/10/21 12:45:27;;;;;;;;;;;;;;;21.10;68.62;96682.69;4179781;28;5808;-69
2022/10/21 12:47:33;;;;;;;;;;;;;;;21.11;68.83;96686.97;4185636;28;5942;-70
2022/10/21 12:49:37;;;;;;;;;;;;;;;21.10;68.41;96690.75;4177399;28;5713;-69
2022/10/21 12:51:47;;;;;;;;;;;;;;;21.07;68.59;96702.03;4186043;28;5831;-69
2022/10/21 12:53:53;;;;;;;;;;;;;;;21.05;68.51;96709.53;4186263;28;5820;-70
2022/10/21 12:55:59;;;;;;;;;;;;;;;21.04;68.85;96705.22;4171564;28;5817;-69
2022/10/21 12:58:04;;;;;;;;;;;;;;;21.04;68.45;96697.16;4169241;28;5754;-69
2022/10/21 13:00:53;;;;;;;;;;;;;;;21.03;68.83;96700.91;4174533;28;5666;-69
2022/10/21 13:02:57;;;;;;;;;;;;;;;21.02;68.84;96689.34;4177961;28;5821;-70
2022/10/21 13:05:00;;;;;;;;;;;;;;;21.03;68.49;96684.78;4176001;28;6190;-69
2022/10/21 13:07:05;;;;;;;;;;;;;;;21.02;68.88;96689.34;4177332;28;5877;-70
2022/10/21 13:09:31;;;;;;;;;;;;;;;21.01;68.43;96686.94;4177386;28;6450;-69
2022/10/21 13:11:39;;;;;;;;;;;;;;;21.01;68.40;96692.31;4180464;28;5872;-70
2022/10/21 13:13:43;;;;;;;;;;;;;;;20.99;68.91;96689.88;4173532;28;5817;-70
2022/10/21 13:15:50;;;;;;;;;;;;;;;20.98;68.33;96690.16;4182773;28;5104;-70
2022/10/21 13:17:54;;;;;;;;;;;;;;;20.96;68.14;96697.69;4185423;28;5876;-70
2022/10/21 13:20:37;;;;;;;;;;;;;;;20.92;68.50;96692.81;4179710;28;6420;-70
2022/10/21 13:22:43;;;;;;;;;;;;;;;20.93;68.14;96682.84;4177319;28;5754;-70
2022/10/21 13:24:46;;;;;;;;;;;;;;;20.92;67.99;96682.06;4181744;28;5725;-70
2022/10/21 13:26:52;;;;;;;;;;;;;;;20.90;67.62;96684.19;4172068;28;5692;-70
2022/10/21 13:29:06;;;;;;;;;;;;;;;20.89;67.87;96682.59;4169168;28;5791;-70
2022/10/21 13:31:21;;;;;;;;;;;;;;;20.85;67.65;96678.81;4181806;28;5804;-70
2022/10/21 13:33:26;;;;;;;;;;;;;;;20.87;67.58;96683.91;4181278;28;5808;-71
2022/10/21 13:35:35;;;;;;;;;;;;;;;20.87;67.81;96690.09;4184802;28;5725;-70
2022/10/21 13:37:42;;;;;;;;;;;;;;;20.87;67.46;96698.16;4185267;28;5111;-71
2022/10/21 13:39:51;;;;;;;;;;;;;;;20.87;67.40;96698.16;4184348;28;5947;-71
2022/10/21 13:42:03;;;;;;;;;;;;;;;20.86;67.22;96693.06;4175109;28;5826;-70
2022/10/21 13:44:07;;;;;;;;;;;;;;;20.87;67.15;96695.47;4177447;28;5896;-70
2022/10/21 13:46:13;;;;;;;;;;;;;;;20.86;67.15;96696.53;4181229;28;5709;-70
2022/10/21 13:48:18;;;;;;;;;;;;;;;20.87;67.01;96691.97;4176154;28;5807;-70
2022/10/21 13:50:27;;;;;;;;;;;;;;;20.87;66.75;96695.47;4176660;28;5841;-70
2022/10/21 13:52:31;;;;;;;;;;;;;;;20.84;67.03;96701.38;4174753;28;5788;-70
2022/10/21 13:54:35;;;;;;;;;;;;;;;20.83;66.95;96701.59;4178605;28;6413;-70
2022/10/21 13:56:39;;;;;;;;;;;;;;;20.82;66.97;96722.28;4178170;28;5792;-70
2022/10/21 13:58:43;;;;;;;;;;;;;;;20.81;66.84;96718.00;4178313;28;5948;-70
2022/10/21 14:00:46;;;;;;;;;;;;;;;20.78;66.59;96713.16;4170467;28;5900;-70
2022/10/21 14:02:50;;;;;;;;;;;;;;;20.79;66.57;96717.44;4175305;28;5825;-70
2022/10/21 14:04:53;;;;;;;;;;;;;;;20.78;66.99;96731.97;4173974;28;5760;-70
2022/10/21 14:06:58;;;;;;;;;;;;;;;20.76;67.04;96715.28;4172937;28;5803;-70
2022/10/21 14:09:06;;;;;;;;;;;;;;;20.74;66.81;96714.75;4181676;28;5709;-70
2022/10/21 14:11:17;;;;;;;;;;;;;;;20.74;66.81;96719.31;4175369;28;5717;-69
2022/10/21 14:13:25;;;;;;;;;;;;;;;20.73;66.77;96712.31;4169041;28;5964;-69
2022/10/21 14:15:39;;;;;;;;;;;;;;;20.71;67.06;96701.81;4176605;28;5825;-69
2022/10/21 14:17:48;;;;;;;;;;;;;;;20.66;67.23;96696.44;4172254;28;5748;-69
2022/10/21 14:19:53;;;;;;;;;;;;;;;20.63;67.18;96696.94;4168463;28;5730;-69
2022/10/21 14:21:59;;;;;;;;;;;;;;;20.59;67.31;96693.16;4173082;28;5105;-70
2022/10/21 14:24:04;;;;;;;;;;;;;;;20.57;67.30;96703.34;4172652;28;5847;-70
2022/10/21 14:26:08;;;;;;;;;;;;;;;20.53;67.04;96697.69;4166875;28;5666;-69
2022/10/21 14:28:13;;;;;;;;;;;;;;;20.54;67.09;96699.31;4170402;28;5750;-69
2022/10/21 14:30:20;;;;;;;;;;;;;;;20.54;66.93;96693.13;4182820;28;5791;-69
2022/10/21 14:32:26;;;;;;;;;;;;;;;20.50;66.88;96697.38;4174314;28;5833;-69
2022/10/21 14:34:31;;;;;;;;;;;;;;;20.49;67.16;96685.03;4175654;28;5713;-69
2022/10/21 14:36:34;;;;;;;;;;;;;;;20.49;67.15;96701.94;4175772;28;5900;-70
2022/10/21 14:38:41;;;;;;;;;;;;;;;20.49;66.99;96687.69;4173628;28;5798;-70
2022/10/21 14:40:55;;;;;;;;;;;;;;;20.47;66.83;96684.47;4179881;28;5099;-71
2022/10/21 14:43:00;;;;;;;;;;;;;;;20.44;67.19;96677.75;4176585;28;5804;-70
2022/10/21 14:45:05;;;;;;;;;;;;;;;20.43;66.92;96686.06;4180049;28;6038;-70
2022/10/21 14:47:18;;;;;;;;;;;;;;;20.42;67.15;96684.41;4180040;28;5974;-68
2022/10/21 14:49:24;;;;;;;;;;;;;;;20.42;67.38;96687.09;4174219;28;5910;-70
2022/10/21 14:51:27;;;;;;;;;;;;;;;20.42;67.43;96689.78;4179795;28;5721;-70
2022/10/21 14:53:34;;;;;;;;;;;;;;;20.41;66.91;96686.31;4182119;28;5721;-68
2022/10/21 14:55:40;;;;;;;;;;;;;;;20.39;67.41;96679.56;4175614;28;5198;-75
2022/10/21 14:57:47;;;;;;;;;;;;;;;20.36;66.95;96668.25;4180010;28;5953;-77
2022/10/21 14:59:51;;;;;;;;;;;;;;;20.35;66.98;96673.88;4172372;28;5822;-75
2022/10/21 15:01:58;;;;;;;;;;;;;;;20.35;67.42;96682.75;4176889;28;5959;-74
2022/10/21 15:04:01;;;;;;;;;;;;;;;20.31;66.93;96670.94;4172191;28;5900;-69
2022/10/21 15:06:10;;;;;;;;;;;;;;;20.31;67.02;96673.59;4175094;28;5705;-69
2022/10/21 15:08:30;;;;;;;;;;;;;;;20.28;67.25;96659.91;4173881;28;5813;-70
2022/10/21 15:10:33;;;;;;;;;;;;;;;20.27;67.04;96645.69;4173510;28;5956;-70
2022/10/21 15:12:39;;;;;;;;;;;;;;;20.26;67.24;96644.03;4177398;28;5873;-69
2022/10/21 15:14:43;;;;;;;;;;;;;;;20.26;67.18;96635.97;4167581;28;7746;-69
2022/10/21 15:16:49;;;;;;;;;;;;;;;20.24;66.83;96630.06;4176233;28;5817;-68
2022/10/21 15:18:54;;;;;;;;;;;;;;;20.24;67.17;96640.00;4176066;28;5839;-69
2022/10/21 15:21:01;;;;;;;;;;;;;;;20.23;67.06;96643.75;4170194;28;7012;-69
2022/10/21 15:23:04;;;;;;;;;;;;;;;20.22;66.95;96642.13;4178272;28;5943;-69
2022/10/21 15:25:13;;;;;;;;;;;;;;;20.20;67.31;96645.06;4178817;28;5835;-68
2022/10/21 15:27:17;;;;;;;;;;;;;;;20.19;66.86;96638.09;4168901;28;5959;-69
2022/10/21 15:29:32;;;;;;;;;;;;;;;20.19;67.38;96635.41;4180328;28;5864;-69
2022/10/21 15:31:35;;;;;;;;;;;;;;;20.17;66.92;96634.88;4170270;28;5872;-70
2022/10/21 15:33:38;;;;;;;;;;;;;;;20.18;67.07;96641.84;4174778;28;5829;-70
2022/10/21 15:35:42;;;;;;;;;;;;;;;20.16;67.32;96633.25;4170433;28;5765;-69
2022/10/21 15:37:48;;;;;;;;;;;;;;;20.16;67.21;96633.25;4177605;28;5721;-70
2022/10/21 15:39:51;;;;;;;;;;;;;;;20.17;67.25;96632.19;4172247;28;7008;-69
2022/10/21 15:41:55;;;;;;;;;;;;;;;20.18;67.42;96636.47;4181267;28;5808;-80
2022/10/21 15:44:00;;;;;;;;;;;;;;;20.18;67.28;96630.31;4177031;28;5842;-80
2022/10/21 15:46:05;;;;;;;;;;;;;;;20.18;66.97;96641.84;4177421;28;5818;-80
2022/10/21 15:48:10;;;;;;;;;;;;;;;20.17;67.18;96632.19;4173565;28;5734;-83
2022/10/21 15:50:14;;;;;;;;;;;;;;;20.17;67.49;96640.22;4177529;28;6002;-83
2022/10/21 15:52:19;;;;;;;;;;;;;;;20.15;67.33;96636.16;4176046;28;5783;-83
2022/10/21 15:54:22;;;;;;;;;;;;;;;20.15;67.30;96636.16;4177211;28;5895;-82
2022/10/21 15:56:25;;;;;;;;;;;;;;;20.16;67.50;96640.47;4181256;28;5819;-78
2022/10/21 15:58:28;;;;;;;;;;;;;;;20.16;67.77;96637.78;4178010;28;5791;-77
2022/10/21 16:00:32;;;;;;;;;;;;;;;20.16;67.55;96643.97;4183046;28;5733;-78
2022/10/21 16:02:42;;;;;;;;;;;;;;;20.15;67.89;96653.06;4182291;28;5654;-78
2022/10/21 16:04:45;;;;;;;;;;;;;;;20.13;67.93;96652.53;4183494;28;5734;-78
2022/10/21 16:06:50;;;;;;;;;;;;;;;20.12;67.68;96634.00;4183347;28;5829;-78
2022/10/21 16:08:55;;;;;;;;;;;;;;;20.13;67.96;96647.16;4183660;28;5874;-79
2022/10/21 16:10:58;;;;;;;;;;;;;;;20.13;67.82;96652.53;4177050;28;5741;-76
2022/10/21 16:13:00;;;;;;;;;;;;;;;20.13;67.57;96663.25;4166783;28;5746;-79
2022/10/21 16:15:04;;;;;;;;;;;;;;;20.11;67.80;96668.09;4167349;28;5817;-77
2022/10/21 16:17:09;;;;;;;;;;;;;;;20.12;67.52;96679.63;4167537;28;5833;-78
2022/10/21 16:19:12;;;;;;;;;;;;;;;20.10;68.02;96674.50;4170466;28;5750;-78
2022/10/21 16:21:16;;;;;;;;;;;;;;;20.08;67.57;96679.34;4178844;28;5824;-77
2022/10/21 16:23:18;;;;;;;;;;;;;;;20.04;67.82;96667.47;4186857;28;7730;-78
2022/10/21 16:25:23;;;;;;;;;;;;;;;20.03;67.74;96655.94;4186603;28;5697;-77
2022/10/21 16:27:26;;;;;;;;;;;;;;;20.03;68.06;96647.06;4186643;28;5713;-77
2022/10/21 16:29:48;;;;;;;;;;;;;;;19.99;67.73;96652.16;4186805;28;5713;-77
2022/10/21 16:31:52;;;;;;;;;;;;;;;19.93;67.88;96644.31;4186401;28;5697;-77
2022/10/21 16:33:55;;;;;;;;;;;;;;;19.89;67.93;96624.44;4186673;28;5705;-77
2022/10/21 16:35:58;;;;;;;;;;;;;;;19.80;68.12;96599.94;4186687;28;5716;-77
2022/10/21 16:38:00;;;;;;;;;;;;;;;19.81;68.21;96579.31;4186697;28;5807;-77
2022/10/21 16:40:16;;;;;;;;;;;;;;;19.84;68.17;96592.22;4186564;28;5800;-77
2022/10/21 16:42:20;;;;;;;;;;;;;;;19.87;68.19;96608.59;4186160;28;6443;-77
2022/10/21 16:44:23;;;;;;;;;;;;;;;19.88;68.39;96610.22;4186784;28;5816;-77
2022/10/21 16:46:29;;;;;;;;;;;;;;;19.91;68.50;96624.97;4186643;28;5713;-77
2022/10/21 16:48:32;;;;;;;;;;;;;;;19.90;68.10;96621.50;4186428;28;5737;-77
2022/10/21 16:50:39;;;;;;;;;;;;;;;19.91;68.13;96641.09;4186455;28;5912;-78
2022/10/21 16:52:42;;;;;;;;;;;;;;;19.91;68.47;96635.72;4182363;28;5734;-78
2022/10/21 16:54:44;;;;;;;;;;;;;;;19.92;68.42;96623.91;4169983;28;5844;-78
2022/10/21 16:56:50;;;;;;;;;;;;;;;19.92;68.52;96634.66;4170021;28;5749;-77
2022/10/21 16:58:58;;;;;;;;;;;;;;;19.92;68.46;96621.22;4169879;28;5841;-77
2022/10/21 17:01:02;;;;;;;;;;;;;;;19.92;68.28;96626.59;4169746;28;6408;-77
2022/10/21 17:03:05;;;;;;;;;;;;;;;19.91;68.47;96639.22;4169787;28;5912;-78
2022/10/21 17:05:12;;;;;;;;;;;;;;;19.91;68.56;96641.09;4169815;28;5832;-77
2022/10/21 17:07:15;;;;;;;;;;;;;;;19.90;68.78;96651.00;4169720;28;5738;-78
2022/10/21 17:09:18;;;;;;;;;;;;;;;19.89;68.53;96660.13;4169831;28;5730;-78
2022/10/21 17:11:23;;;;;;;;;;;;;;;19.89;68.49;96651.25;4169397;28;5808;-79
2022/10/21 17:13:26;;;;;;;;;;;;;;;19.90;68.54;96659.06;4169521;28;6523;-78
2022/10/21 17:15:30;;;;;;;;;;;;;;;19.92;68.97;96662.28;4169574;28;5898;-78
2022/10/21 17:17:33;;;;;;;;;;;;;;;19.93;68.60;96665.78;4169602;28;5828;-78
2022/10/21 17:19:36;;;;;;;;;;;;;;;19.92;68.46;96664.16;4169433;28;5738;-78
2022/10/21 17:21:38;;;;;;;;;;;;;;;19.91;68.63;96673.28;4172430;28;5883;-78
2022/10/21 17:23:44;;;;;;;;;;;;;;;19.90;68.67;96674.34;4178005;28;5824;-78
2022/10/21 17:25:47;;;;;;;;;;;;;;;19.89;68.78;96670.84;4179411;28;5962;-78
2022/10/21 17:27:50;;;;;;;;;;;;;;;19.88;68.64;96658.50;4182843;28;7380;-78
2022/10/21 17:29:53;;;;;;;;;;;;;;;19.89;69.15;96678.09;4185065;28;5819;-77
2022/10/21 17:31:57;;;;;;;;;;;;;;;19.88;69.06;96673.78;4185421;28;5123;-77
2022/10/21 17:34:06;;;;;;;;;;;;;;;19.89;68.80;96673.53;4185693;28;5721;-79
2022/10/21 17:36:09;;;;;;;;;;;;;;;19.89;69.30;96676.22;4184276;28;5729;-79
2022/10/21 17:38:13;;;;;;;;;;;;;;;19.86;68.98;96679.41;4179898;28;5843;-78
2022/10/21 17:40:20;;;;;;;;;;;;;;;19.88;69.26;96679.16;4184875;28;5797;-77
2022/10/21 17:42:23;;;;;;;;;;;;;;;19.88;68.88;96671.09;4177774;28;5796;-78
2022/10/21 17:44:25;;;;;;;;;;;;;;;19.88;68.97;96673.78;4185673;28;5709;-78
2022/10/21 17:46:28;;;;;;;;;;;;;;;19.86;69.31;96671.38;4183383;28;5716;-78
2022/10/21 17:48:33;;;;;;;;;;;;;;;19.84;69.03;96670.81;4178204;28;5725;-78
2022/10/21 17:50:37;;;;;;;;;;;;;;;19.81;69.39;96657.09;4182880;28;5125;-78
2022/10/21 17:52:41;;;;;;;;;;;;;;;19.81;69.51;96638.31;4179354;28;7708;-78
2022/10/21 17:54:44;;;;;;;;;;;;;;;19.77;69.18;96630.78;4180519;28;6606;-79
2022/10/21 17:56:49;;;;;;;;;;;;;;;19.73;69.48;96636.91;4178826;28;5776;-79
2022/10/21 17:58:54;;;;;;;;;;;;;;;19.70;69.54;96624.81;4184301;28;5713;-79
2022/10/21 18:00:57;;;;;;;;;;;;;;;19.70;69.47;96624.00;4182599;28;5721;-70
2022/10/21 18:03:00;;;;;;;;;;;;;;;19.69;69.42;96635.78;4171598;28;5761;-70
2022/10/21 18:05:07;;;;;;;;;;;;;;;19.70;69.33;96648.94;4174911;28;5856;-70
2022/10/21 18:07:10;;;;;;;;;;;;;;;19.72;69.08;96662.94;4182347;28;5857;-70
2022/10/21 18:09:15;;;;;;;;;;;;;;;19.73;69.39;96656.50;4181309;28;5768;-68
2022/10/21 18:11:20;;;;;;;;;;;;;;;19.74;69.22;96665.34;4176331;28;5799;-69
2022/10/21 18:13:23;;;;;;;;;;;;;;;19.71;69.23;96664.00;4180144;28;5742;-69
2022/10/21 18:15:27;;;;;;;;;;;;;;;19.74;69.13;96673.41;4182052;28;5799;-70
2022/10/21 18:17:30;;;;;;;;;;;;;;;19.75;69.38;96681.19;4179710;28;5724;-70
2022/10/21 18:19:33;;;;;;;;;;;;;;;19.74;69.13;96658.13;4176320;28;5884;-70
2022/10/21 18:21:38;;;;;;;;;;;;;;;19.72;69.33;96649.53;4171202;28;5725;-70
2022/10/21 18:23:44;;;;;;;;;;;;;;;19.73;69.07;96653.00;4175705;28;5890;-70
2022/10/21 18:25:46;;;;;;;;;;;;;;;19.74;69.42;96639.34;4176189;28;5815;-70
2022/10/21 18:27:49;;;;;;;;;;;;;;;19.73;69.35;96624.31;4171259;28;5742;-70
2022/10/21 18:29:52;;;;;;;;;;;;;;;19.73;69.23;96631.56;4180392;28;5709;-68
2022/10/21 18:31:55;;;;;;;;;;;;;;;19.72;69.11;96633.44;4182511;28;5704;-69
2022/10/21 18:33:59;;;;;;;;;;;;;;;19.71;69.17;96621.09;4184308;28;5817;-71
2022/10/21 18:36:09;;;;;;;;;;;;;;;19.70;69.09;96611.41;4176142;28;5811;-71
2022/10/21 18:38:14;;;;;;;;;;;;;;;19.70;69.49;96613.28;4176378;28;5742;-71
2022/10/21 18:40:16;;;;;;;;;;;;;;;19.69;69.13;96617.03;4167448;28;5746;-70
2022/10/21 18:42:19;;;;;;;;;;;;;;;19.67;69.13;96614.59;4182253;28;5858;-70
2022/10/21 18:44:22;;;;;;;;;;;;;;;19.66;68.89;96610.31;4183988;28;5705;-71
2022/10/21 18:46:25;;;;;;;;;;;;;;;19.65;69.32;96615.94;4184105;28;5890;-70
2022/10/21 18:48:28;;;;;;;;;;;;;;;19.65;68.89;96615.94;4182396;28;5709;-71
2022/10/21 18:50:31;;;;;;;;;;;;;;;19.63;69.44;96629.59;4170373;28;5934;-70
2022/10/21 18:52:34;;;;;;;;;;;;;;;19.63;69.04;96629.59;4184291;28;6537;-71
2022/10/21 18:54:39;;;;;;;;;;;;;;;19.64;69.32;96627.72;4172597;28;5746;-71
2022/10/21 18:56:43;;;;;;;;;;;;;;;19.62;69.08;96643.25;4172419;28;6432;-71
2022/10/21 18:58:46;;;;;;;;;;;;;;;19.62;69.13;96656.66;4173863;28;5752;-71
2022/10/21 19:00:49;;;;;;;;;;;;;;;19.63;69.40;96655.59;4172687;28;5721;-69
2022/10/21 19:02:51;;;;;;;;;;;;;;;19.61;69.20;96631.72;4177193;28;5827;-69
2022/10/21 19:04:54;;;;;;;;;;;;;;;19.62;69.08;96627.16;4182225;28;5712;-69
2022/10/21 19:07:02;;;;;;;;;;;;;;;19.62;69.47;96611.88;4176802;28;5836;-69
2022/10/21 19:09:11;;;;;;;;;;;;;;;19.60;69.01;96599.81;4175464;28;5721;-69
2022/10/21 19:11:15;;;;;;;;;;;;;;;19.58;69.25;96577.78;4177338;28;5783;-68
2022/10/21 19:13:18;;;;;;;;;;;;;;;19.58;69.57;96570.53;4174383;28;5804;-69
2022/10/21 19:15:21;;;;;;;;;;;;;;;19.59;69.39;96557.94;4175517;28;5713;-69
2022/10/21 19:17:26;;;;;;;;;;;;;;;19.58;69.50;96562.50;4168782;28;5940;-70
2022/10/21 19:19:29;;;;;;;;;;;;;;;19.58;69.56;96583.94;4179978;28;5738;-70